Aledo, IL

7:45 PM CST on November 26, 2014 (GMT -0600)
KILALEDO2 | Change Station
CLOSE
Current Station
Personal Weather Station
Location: Aledo, IL
Elevation: 735 ft
Nearby Weather Stations

Elev 735 ft 41.20 °N, 90.76 °W | Updated 11 seconds ago

Snow
Snow
27.1 °F
Feels Like 27 °F
N
0.0
Wind Variable Wind from NNE
Gusts 0.9 mph

Today
High -- | Low -- °F
--% Chance of Precip.
Yesterday
High -- | Low -- °F
Precip. -- in
7:03 AM 4:36 PM
Waxing Crescent, 24% visible
Pressure 30.21 in
Visibility 6.0 miles
Clouds Mostly Cloudy 1700 ft
Overcast 2900 ft
Windchill 27 °F
Dew Point 23 °F
Humidity 83%
Rainfall 0.00 in
Snow Depth Not available.
UV 0 out of 12
Pollen .10 out of 12
Air Quality Not available.
Flu Activity Not available.
METAR KMLI 270052Z 03009KT 6SM HZ BKN017 OVC029 M02/M06 A3018 RMK AO2 SNB03E48 SLP229 P0000 T10221056 $

More Conditions Fewer Conditions

Pressure 30.21 in
Visibility 6.0 miles
Clouds Mostly Cloudy 1700 ft
Overcast 2900 ft
Windchill 27 °F
Dew Point 23 °F
Humidity 83%
Rainfall 0.00 in
Snow Depth Not available.
UV 0 out of 12
Pollen .10 out of 12
Air Quality Not available.
Flu Activity Not available.
METAR KMLI 270052Z 03009KT 6SM HZ BKN017 OVC029 M02/M06 A3018 RMK AO2 SNB03E48 SLP229 P0000 T10221056 $

More Conditions Fewer Conditions

10-Day Weather Forecast

Almanac

Astronomy

Nov. 26, 2014 Rise Set
Actual Time
Civil Twilight
Nautical Twilight
Astronomical Twilight
Moon
Length of Visible Light
Length of Day
Tomorrow will be .
, % of the Moon is Illuminated

Today's Extremes

State Highs State Lows

Community

WunderPhotos

Upload Photos

1,773,940 photos uploaded!

WunderBlogs® & News

Nearby

Air Quality

  Air Quality AQ Index Pollutant
Not available.

Snow Depth

Station Depth Elevation

Earthquake Activity

City Distance Mag. Time & Date
Minimum magnitude displayed is 2.5.

Coastal Water Temperatures

Place Temperature

Nearby Weather Stations